Time,TemperatureF,DewpointF,PressureIn,WindDirection,WindDirectionDegrees,WindSpeedMPH,WindSpeedGustMPH,Humidity,HourlyPrecipIn,Conditions,Clouds,dailyrainin,SolarRadiationWatts/m^2,SoftwareType,DateUTC
2013-07-13 00:01:00,62.5,59.0,30.05,East,94,0.0,0.0,88,0.00,,,0.00,0,weatherlink.com 1.10,2013-07-13 04:01:00,
2013-07-13 00:16:00,62.0,59.0,30.05,East,94,0.0,0.0,88,0.00,,,0.00,0,weatherlink.com 1.10,2013-07-13 04:16:00,
2013-07-13 00:31:00,61.5,58.0,30.06,East,94,0.0,0.0,88,0.00,,,0.00,0,weatherlink.com 1.10,2013-07-13 04:31:00,
2013-07-13 00:46:00,61.4,59.0,30.06,East,94,0.0,0.0,90,0.00,,,0.00,0,weatherlink.com 1.10,2013-07-13 04:46:00,
2013-07-13 01:02:00,61.1,58.0,30.06,East,94,0.0,0.0,90,0.00,,,0.00,0,weatherlink.com 1.10,2013-07-13 05:02:00,
2013-07-13 01:17:00,60.7,58.0,30.06,East,94,0.0,0.0,91,0.00,,,0.00,0,weatherlink.com 1.10,2013-07-13 05:17:00,
2013-07-13 01:32:00,60.5,58.0,30.06,East,94,0.0,0.0,91,0.00,,,0.00,0,weatherlink.com 1.10,2013-07-13 05:32:00,
2013-07-13 01:47:00,60.3,58.0,30.06,East,94,0.0,0.0,92,0.00,,,0.00,0,weatherlink.com 1.10,2013-07-13 05:47:00,
2013-07-13 02:02:00,60.1,58.0,30.06,East,94,0.0,0.0,92,0.00,,,0.00,0,weatherlink.com 1.10,2013-07-13 06:02:00,
2013-07-13 02:17:00,59.9,58.0,30.05,East,94,0.0,0.0,92,0.00,,,0.00,0,weatherlink.com 1.10,2013-07-13 06:17:00,
2013-07-13 02:32:00,59.7,58.0,30.05,East,94,0.0,0.0,93,0.00,,,0.00,0,weatherlink.com 1.10,2013-07-13 06:32:00,
2013-07-13 02:47:00,59.6,58.0,30.06,East,94,0.0,0.0,93,0.00,,,0.00,0,weatherlink.com 1.10,2013-07-13 06:47:00,
2013-07-13 03:17:00,59.7,58.0,30.05,East,94,0.0,0.0,93,0.00,,,0.00,0,weatherlink.com 1.10,2013-07-13 07:17:00,
2013-07-13 03:32:00,59.6,58.0,30.05,East,94,0.0,0.0,93,0.00,,,0.00,0,weatherlink.com 1.10,2013-07-13 07:32:00,
2013-07-13 03:47:00,59.8,58.0,30.05,East,94,0.0,0.0,93,0.00,,,0.00,0,weatherlink.com 1.10,2013-07-13 07:47:00,
2013-07-13 04:02:00,59.9,58.0,30.06,East,94,0.0,0.0,93,0.00,,,0.00,0,weatherlink.com 1.10,2013-07-13 08:02:00,
2013-07-13 04:17:00,59.9,58.0,30.05,East,94,0.0,0.0,93,0.00,,,0.00,0,weatherlink.com 1.10,2013-07-13 08:17:00,
2013-07-13 04:32:00,59.9,58.0,30.06,East,94,0.0,0.0,93,0.00,,,0.00,0,weatherlink.com 1.10,2013-07-13 08:32:00,
2013-07-13 04:47:00,60.0,58.0,30.06,East,94,0.0,0.0,92,0.00,,,0.00,0,weatherlink.com 1.10,2013-07-13 08:47:00,
2013-07-13 05:02:00,60.1,58.0,30.06,East,94,0.0,0.0,92,0.00,,,0.00,0,weatherlink.com 1.10,2013-07-13 09:02:00,
2013-07-13 05:17:00,60.1,58.0,30.07,East,94,0.0,0.0,92,0.00,,,0.00,0,weatherlink.com 1.10,2013-07-13 09:17:00,
2013-07-13 05:32:00,59.9,58.0,30.06,East,94,0.0,0.0,92,0.00,,,0.00,0,weatherlink.com 1.10,2013-07-13 09:32:00,
2013-07-13 05:47:00,59.7,58.0,30.06,East,94,0.0,0.0,93,0.00,,,0.00,0,weatherlink.com 1.10,2013-07-13 09:47:00,
2013-07-13 06:02:00,59.6,58.0,30.06,East,94,0.0,0.0,93,0.00,,,0.00,0,weatherlink.com 1.10,2013-07-13 10:02:00,
2013-07-13 06:17:00,59.6,58.0,30.06,East,94,0.0,0.0,94,0.00,,,0.00,0,weatherlink.com 1.10,2013-07-13 10:17:00,
2013-07-13 06:32:00,59.6,58.0,30.06,East,94,0.0,0.0,94,0.00,,,0.00,0,weatherlink.com 1.10,2013-07-13 10:32:00,
2013-07-13 06:47:00,59.7,58.0,30.06,East,94,0.0,0.0,94,0.00,,,0.00,5,weatherlink.com 1.10,2013-07-13 10:47:00,
2013-07-13 07:02:00,59.7,58.0,30.07,East,94,0.0,0.0,94,0.00,,,0.00,11,weatherlink.com 1.10,2013-07-13 11:02:00,
2013-07-13 07:17:00,59.8,58.0,30.08,East,94,0.0,0.0,94,0.00,,,0.00,16,weatherlink.com 1.10,2013-07-13 11:17:00,
2013-07-13 07:32:00,60.1,58.0,30.08,East,94,0.0,0.0,94,0.00,,,0.00,19,weatherlink.com 1.10,2013-07-13 11:32:00,
2013-07-13 07:47:00,60.3,59.0,30.09,East,94,0.0,0.0,95,0.00,,,0.00,28,weatherlink.com 1.10,2013-07-13 11:47:00,
2013-07-13 08:02:00,60.7,59.0,30.09,ENE,74,0.0,0.0,95,0.00,,,0.00,26,weatherlink.com 1.10,2013-07-13 12:02:00,
2013-07-13 08:17:00,60.8,59.0,30.08,ENE,74,0.0,0.0,94,0.00,,,0.00,37,weatherlink.com 1.10,2013-07-13 12:17:00,
2013-07-13 08:32:00,61.1,60.0,30.07,ENE,74,0.0,0.0,95,0.00,,,0.00,95,weatherlink.com 1.10,2013-07-13 12:32:00,
2013-07-13 08:47:00,62.1,61.0,30.08,ENE,74,0.0,0.0,95,0.00,,,0.00,67,weatherlink.com 1.10,2013-07-13 12:47:00,
2013-07-13 09:02:00,62.8,61.0,30.08,ENE,70,0.0,0.0,94,0.00,,,0.00,102,weatherlink.com 1.10,2013-07-13 13:02:00,
2013-07-13 09:17:00,63.5,62.0,30.09,NE,42,0.0,0.0,93,0.00,,,0.00,188,weatherlink.com 1.10,2013-07-13 13:17:00,
2013-07-13 09:32:00,65.0,63.0,30.09,NE,43,0.0,0.0,92,0.00,,,0.00,455,weatherlink.com 1.10,2013-07-13 13:32:00,
2013-07-13 09:47:00,67.2,63.0,30.09,NNE,19,0.0,0.0,87,0.00,,,0.00,385,weatherlink.com 1.10,2013-07-13 13:47:00,
2013-07-13 10:02:00,68.5,64.0,30.09,NNE,20,0.0,0.0,86,0.00,,,0.00,404,weatherlink.com 1.10,2013-07-13 14:02:00,
2013-07-13 10:17:00,70.7,65.0,30.08,NNE,20,0.0,0.0,81,0.00,,,0.00,638,weatherlink.com 1.10,2013-07-13 14:17:00,
2013-07-13 10:32:00,72.9,66.0,30.09,NE,54,0.0,0.0,78,0.00,,,0.00,731,weatherlink.com 1.10,2013-07-13 14:32:00,
2013-07-13 10:47:00,74.2,65.0,30.09,NE,49,0.0,0.0,73,0.00,,,0.00,714,weatherlink.com 1.10,2013-07-13 14:47:00,
2013-07-13 11:02:00,74.8,65.0,30.08,NNE,12,0.0,0.0,71,0.00,,,0.00,721,weatherlink.com 1.10,2013-07-13 15:02:00,
2013-07-13 11:17:00,75.8,64.0,30.08,NE,53,0.0,0.0,67,0.00,,,0.00,772,weatherlink.com 1.10,2013-07-13 15:17:00,
2013-07-13 11:32:00,76.7,64.0,30.09,NNW,340,0.0,0.0,66,0.00,,,0.00,461,weatherlink.com 1.10,2013-07-13 15:32:00,
2013-07-13 11:47:00,76.4,66.0,30.09,NNW,341,0.0,0.0,69,0.00,,,0.00,798,weatherlink.com 1.10,2013-07-13 15:47:00,
2013-07-13 12:02:00,77.2,65.0,30.09,NE,44,0.0,0.0,65,0.00,,,0.00,872,weatherlink.com 1.10,2013-07-13 16:02:00,
2013-07-13 12:17:00,78.4,64.0,30.09,NNE,19,0.0,0.0,62,0.00,,,0.00,891,weatherlink.com 1.10,2013-07-13 16:17:00,
2013-07-13 12:33:00,78.9,65.0,30.09,SSW,200,0.0,0.0,63,0.00,,,0.00,916,weatherlink.com 1.10,2013-07-13 16:33:00,
2013-07-13 12:47:00,79.2,65.0,30.08,West,279,0.0,0.0,62,0.00,,,0.00,933,weatherlink.com 1.10,2013-07-13 16:47:00,
2013-07-13 13:02:00,79.3,65.0,30.08,ESE,113,0.0,0.0,62,0.00,,,0.00,949,weatherlink.com 1.10,2013-07-13 17:02:00,
2013-07-13 13:17:00,79.7,68.0,30.08,NW,317,0.0,0.0,67,0.00,,,0.00,285,weatherlink.com 1.10,2013-07-13 17:17:00,
2013-07-13 13:32:00,79.7,65.0,30.08,NNW,344,0.0,0.0,61,0.00,,,0.00,299,weatherlink.com 1.10,2013-07-13 17:32:00,
2013-07-13 13:47:00,78.7,67.0,30.08,NNE,27,0.0,0.0,67,0.00,,,0.00,1111,weatherlink.com 1.10,2013-07-13 17:47:00,
2013-07-13 14:02:00,79.7,66.0,30.07,NE,48,0.0,0.0,63,0.00,,,0.00,1114,weatherlink.com 1.10,2013-07-13 18:02:00,
2013-07-13 14:17:00,79.8,65.0,30.07,ENE,66,0.0,0.0,61,0.00,,,0.00,1021,weatherlink.com 1.10,2013-07-13 18:17:00,
2013-07-13 14:32:00,80.8,66.0,30.06,NNE,30,0.0,0.0,61,0.00,,,0.00,1106,weatherlink.com 1.10,2013-07-13 18:32:00,
2013-07-13 14:47:00,80.7,67.0,30.06,NE,34,0.0,0.0,63,0.00,,,0.00,1000,weatherlink.com 1.10,2013-07-13 18:47:00,
2013-07-13 15:02:00,81.1,66.0,30.05,WNW,298,0.0,0.0,61,0.00,,,0.00,949,weatherlink.com 1.10,2013-07-13 19:02:00,
2013-07-13 15:17:00,81.8,68.0,30.05,NNW,334,0.0,0.0,64,0.00,,,0.00,993,weatherlink.com 1.10,2013-07-13 19:17:00,
2013-07-13 15:32:00,81.8,67.0,30.05,WNW,298,0.0,0.0,62,0.00,,,0.00,916,weatherlink.com 1.10,2013-07-13 19:32:00,
2013-07-13 15:47:00,82.4,66.0,30.05,ENE,64,0.0,0.0,57,0.00,,,0.00,993,weatherlink.com 1.10,2013-07-13 19:47:00,
2013-07-13 16:02:00,82.4,67.0,30.04,North,9,0.0,0.0,59,0.00,,,0.00,299,weatherlink.com 1.10,2013-07-13 20:02:00,
2013-07-13 16:17:00,82.5,69.0,30.04,ENE,67,0.0,0.0,63,0.00,,,0.00,895,weatherlink.com 1.10,2013-07-13 20:17:00,
2013-07-13 16:32:00,82.5,67.0,30.04,West,261,0.0,0.0,60,0.00,,,0.00,149,weatherlink.com 1.10,2013-07-13 20:32:00,
2013-07-13 16:47:00,82.2,68.0,30.03,NNW,333,0.0,0.0,62,0.00,,,0.00,881,weatherlink.com 1.10,2013-07-13 20:47:00,
2013-07-13 17:03:00,80.8,68.0,30.04,North,355,0.0,0.0,65,0.00,,,0.00,241,weatherlink.com 1.10,2013-07-13 21:03:00,
2013-07-13 17:18:00,82.0,68.0,30.04,NE,34,0.0,0.0,63,0.00,,,0.00,777,weatherlink.com 1.10,2013-07-13 21:18:00,
2013-07-13 17:33:00,82.8,69.0,30.03,NNE,17,0.0,0.0,64,0.00,,,0.00,775,weatherlink.com 1.10,2013-07-13 21:33:00,
2013-07-13 17:48:00,81.8,68.0,30.03,SSE,168,0.0,0.0,63,0.00,,,0.00,642,weatherlink.com 1.10,2013-07-13 21:48:00,
2013-07-13 18:03:00,82.2,68.0,30.03,SSW,207,0.0,0.0,63,0.00,,,0.00,598,weatherlink.com 1.10,2013-07-13 22:03:00,
2013-07-13 18:18:00,82.2,68.0,30.03,WNW,282,0.0,0.0,63,0.00,,,0.00,439,weatherlink.com 1.10,2013-07-13 22:18:00,
2013-07-13 18:33:00,81.8,67.0,30.02,WSW,237,0.0,0.0,62,0.00,,,0.00,406,weatherlink.com 1.10,2013-07-13 22:33:00,
2013-07-13 18:48:00,81.6,68.0,30.02,NNE,24,0.0,0.0,63,0.00,,,0.00,394,weatherlink.com 1.10,2013-07-13 22:48:00,
2013-07-13 19:03:00,80.8,68.0,30.03,SSE,147,0.0,0.0,65,0.00,,,0.00,111,weatherlink.com 1.10,2013-07-13 23:03:00,
2013-07-13 19:18:00,78.5,67.0,30.03,SSE,147,0.0,0.0,67,0.00,,,0.00,35,weatherlink.com 1.10,2013-07-13 23:18:00,
2013-07-13 19:33:00,76.9,66.0,30.04,SSE,147,0.0,0.0,70,0.00,,,0.00,70,weatherlink.com 1.10,2013-07-13 23:33:00,
2013-07-13 19:48:00,76.9,67.0,30.04,SSE,147,0.0,0.0,71,0.00,,,0.00,104,weatherlink.com 1.10,2013-07-13 23:48:00,
2013-07-13 20:03:00,77.3,68.0,30.04,SSE,147,0.0,0.0,73,0.00,,,0.00,141,weatherlink.com 1.10,2013-07-14 00:03:00,
2013-07-13 20:18:00,77.0,69.0,30.04,SSE,148,0.0,0.0,75,0.00,,,0.00,40,weatherlink.com 1.10,2013-07-14 00:18:00,
2013-07-13 20:33:00,74.3,68.0,30.04,SE,138,0.0,0.0,80,0.00,,,0.00,21,weatherlink.com 1.10,2013-07-14 00:33:00,
2013-07-13 20:48:00,73.0,68.0,30.05,SE,138,0.0,0.0,84,0.00,,,0.00,21,weatherlink.com 1.10,2013-07-14 00:48:00,
2013-07-13 21:03:00,72.0,67.0,30.05,SE,138,0.0,0.0,84,0.00,,,0.00,11,weatherlink.com 1.10,2013-07-14 01:03:00,
2013-07-13 21:18:00,71.0,66.0,30.05,SE,138,0.0,0.0,85,0.00,,,0.00,0,weatherlink.com 1.10,2013-07-14 01:18:00,
2013-07-13 21:33:00,70.0,66.0,30.05,SE,138,0.0,0.0,86,0.00,,,0.00,0,weatherlink.com 1.10,2013-07-14 01:33:00,
2013-07-13 21:48:00,69.2,65.0,30.05,SE,138,0.0,0.0,86,0.00,,,0.00,0,weatherlink.com 1.10,2013-07-14 01:48:00,
2013-07-13 22:03:00,68.6,65.0,30.07,SE,138,0.0,0.0,87,0.00,,,0.00,0,weatherlink.com 1.10,2013-07-14 02:03:00,
2013-07-13 22:18:00,68.1,64.0,30.07,SE,138,0.0,0.0,86,0.00,,,0.00,0,weatherlink.com 1.10,2013-07-14 02:18:00,
2013-07-13 22:33:00,67.7,64.0,30.08,SE,138,0.0,0.0,88,0.00,,,0.00,0,weatherlink.com 1.10,2013-07-14 02:33:00,
2013-07-13 22:48:00,67.4,64.0,30.08,SE,138,0.0,0.0,89,0.00,,,0.00,0,weatherlink.com 1.10,2013-07-14 02:48:00,
2013-07-13 23:03:00,67.3,64.0,30.08,SE,138,0.0,0.0,90,0.00,,,0.00,0,weatherlink.com 1.10,2013-07-14 03:03:00,
2013-07-13 23:18:00,67.1,65.0,30.09,SE,138,0.0,0.0,91,0.00,,,0.00,0,weatherlink.com 1.10,2013-07-14 03:18:00,
2013-07-13 23:33:00,66.8,64.0,30.09,SE,138,0.0,0.0,91,0.00,,,0.00,0,weatherlink.com 1.10,2013-07-14 03:33:00,
2013-07-13 23:49:00,66.6,64.0,30.09,SE,138,0.0,0.0,92,0.00,,,0.00,0,weatherlink.com 1.10,2013-07-14 03:49:00,